Capron, Oklahoma
Current Conditions -  °F | °C
As of 6:10 PM on Saturday 25 Oct 2014 (Local Time) from KAVK Reporting Station
Clear Clear  
Wind Chill: 86°   Ceiling: Unl
Heat Index: 86°   Visibility: 10mi
Dew Point: 52°   Wind: 10mph
Humidity: 31%   Direction: 180°S
Pressure: 29.98"   Gusts: NA
Location:  36.8367°N, 98.8022°W
Report Text: KAVK 252310Z AUTO 18009KT 10SM CLR 30/11 A2998 RMK AO2
Loading
Personal Weather Stations






























Interactive Weather Map New forecast layout! Learn more

10-Day Weather Forecast

Advertisements
Track Severe Weather on mobile